KRBG/RBG METAR and TAF weather

Enter ICAO airport designator
Station Type Date Time Source
KRBG METAR 2020/06/02 18:53 UTC NOAA

KRBG 021853Z AUTO VRB04KT 10SM CLR 21/10 A3017 RMK AO2 SLP215 T02110100


Station Type Date Time Source
KRBG Decoded METAR 2020/06/02 18:53 UTC NOAA

ROSEBURG REGIONAL AIRPORT, OR, United States (KRBG) 43-14N 123-21W 154M
Jun 02, 2020 - 02:53 PM EDT / 2020.06.02 1853 UTC
Wind: Variable at 5 MPH (4 KT):0
Visibility: 10 mile(s):0
Sky conditions: clear
Temperature: 70.0 F (21.1 C)
Dew Point: 50.0 F (10.0 C)
Relative Humidity: 49%
Pressure (altimeter): 30.17 in. Hg (1021 hPa)
ob: KRBG 021853Z AUTO VRB04KT 10SM CLR 21/10 A3017 RMK AO2 SLP215 T02110100
cycle: 19

Station Type Date Time Source
KRBG TAF 2020/06/02 18:34 UTC NOAA

TAF KRBG 021732Z 0218/0318 VRB03KT P6SM SKC
FM022200 36011G18KT P6SM SCT250
FM030200 VRB03KT P6SM SKC

Example: see airport list